createdAt,value
2023-05-08T00:00:34.732Z,99778.50
2023-05-08T00:01:56.341Z,99778.20
2023-05-08T00:03:20.630Z,99770.80
2023-05-08T00:04:56.908Z,99777.10
2023-05-08T00:06:18.926Z,99771.14
2023-05-08T00:07:42.818Z,99779.01
2023-05-08T00:09:04.419Z,99764.29
2023-05-08T00:10:34.001Z,99770.86
2023-05-08T00:11:55.982Z,99776.20
2023-05-08T00:13:20.621Z,99773.38
2023-05-08T00:14:42.791Z,99778.13
2023-05-08T00:16:13.691Z,99778.73
2023-05-08T00:17:38.100Z,99773.98
2023-05-08T00:19:02.093Z,99777.77
2023-05-08T00:20:24.294Z,99780.39
2023-05-08T00:21:48.345Z,99777.23
2023-05-08T00:23:21.950Z,99779.55
2023-05-08T00:24:43.728Z,99780.86
2023-05-08T00:26:07.790Z,99781.00
2023-05-08T00:27:31.745Z,99779.27
2023-05-08T00:28:53.621Z,99783.27
2023-05-08T00:30:17.855Z,99782.58
2023-05-08T00:31:39.872Z,99786.38
2023-05-08T00:33:03.741Z,99788.52
2023-05-08T00:34:28.180Z,99785.45
2023-05-08T00:35:51.968Z,99784.32
2023-05-08T00:37:16.187Z,99787.02
2023-05-08T00:38:40.574Z,99789.10
2023-05-08T00:40:13.781Z,99786.31
2023-05-08T00:41:38.039Z,99786.50
2023-05-08T00:43:00.152Z,99790.02
2023-05-08T00:44:29.322Z,99790.67
2023-05-08T00:45:58.670Z,99792.41
2023-05-08T00:47:27.885Z,99795.04
2023-05-08T00:48:49.637Z,99781.99
2023-05-08T00:50:18.893Z,99798.92
2023-05-08T00:51:43.316Z,99796.52
2023-05-08T00:53:07.517Z,99799.15
2023-05-08T00:54:29.687Z,99789.80
2023-05-08T00:55:53.701Z,99785.55
2023-05-08T00:57:17.775Z,99802.32
2023-05-08T00:58:41.841Z,99802.59
2023-05-08T01:00:15.334Z,99806.77
2023-05-08T01:01:37.555Z,99806.10
2023-05-08T01:03:11.023Z,99807.17
2023-05-08T01:04:38.427Z,99806.26
2023-05-08T01:06:10.123Z,99808.44
2023-05-08T01:07:43.916Z,99807.69
2023-05-08T01:09:08.078Z,99806.96
2023-05-08T01:10:40.516Z,99807.56
2023-05-08T01:12:01.991Z,99812.52
2023-05-08T01:13:23.912Z,99814.71
2023-05-08T01:14:48.284Z,99814.50
2023-05-08T01:16:21.746Z,99815.42
2023-05-08T01:17:53.202Z,99822.35
2023-05-08T01:19:15.001Z,99824.15
2023-05-08T01:20:39.759Z,99824.99
2023-05-08T01:22:04.335Z,99827.44
2023-05-08T01:23:26.716Z,99825.77
2023-05-08T01:25:02.780Z,99825.11
2023-05-08T01:26:36.780Z,99825.38
2023-05-08T01:27:58.328Z,99825.77
2023-05-08T01:29:20.524Z,99822.77
2023-05-08T01:30:44.277Z,99827.73
2023-05-08T01:32:12.858Z,99826.18
2023-05-08T01:33:35.453Z,99825.39
2023-05-08T01:35:06.931Z,99827.33
2023-05-08T01:36:29.127Z,99826.04
2023-05-08T01:37:50.837Z,99828.13
2023-05-08T01:39:27.926Z,99827.89
2023-05-08T01:40:52.047Z,99828.45
2023-05-08T01:42:23.835Z,99829.78
2023-05-08T01:43:55.151Z,99829.13
2023-05-08T01:45:17.249Z,99829.29
2023-05-08T01:46:46.557Z,99830.23
2023-05-08T01:48:10.799Z,99827.99
2023-05-08T01:49:35.599Z,99829.66
2023-05-08T01:50:57.592Z,99830.50
2023-05-08T01:52:27.070Z,99831.67
2023-05-08T01:53:49.186Z,99832.98
2023-05-08T01:55:22.878Z,99830.73
2023-05-08T01:56:47.609Z,99831.67
2023-05-08T01:58:32.722Z,99834.58
2023-05-08T01:59:54.446Z,99831.06
2023-05-08T02:01:35.261Z,99829.56
2023-05-08T02:02:58.232Z,99828.35
2023-05-08T02:04:22.895Z,99828.65
2023-05-08T02:05:50.271Z,99826.67
2023-05-08T02:07:11.756Z,99827.40
2023-05-08T02:08:43.326Z,99829.41
2023-05-08T02:10:05.029Z,99832.23
2023-05-08T02:11:38.353Z,99833.55
2023-05-08T02:13:18.904Z,99833.18
2023-05-08T02:14:41.660Z,99837.45
2023-05-08T02:16:03.063Z,99838.96
2023-05-08T02:17:32.171Z,99837.19
2023-05-08T02:18:53.818Z,99838.63
2023-05-08T02:20:23.068Z,99840.30
2023-05-08T02:21:44.849Z,99839.66
2023-05-08T02:23:08.621Z,99836.98
2023-05-08T02:24:30.721Z,99840.17
2023-05-08T02:25:57.398Z,99841.02
2023-05-08T02:27:21.364Z,99840.73
2023-05-08T02:28:43.447Z,99844.14
2023-05-08T02:30:20.542Z,99846.67
2023-05-08T02:32:05.296Z,99841.34
2023-05-08T02:33:38.971Z,99847.77
2023-05-08T02:35:12.406Z,99844.00
2023-05-08T02:36:38.987Z,99847.85
2023-05-08T02:38:10.536Z,99837.13
2023-05-08T02:39:32.613Z,99848.79
2023-05-08T02:41:06.102Z,99849.02
2023-05-08T02:42:28.354Z,99850.33
2023-05-08T02:43:52.721Z,99852.29
2023-05-08T02:45:29.311Z,99851.64
2023-05-08T02:46:51.312Z,99851.30
2023-05-08T02:48:15.573Z,99852.79
2023-05-08T02:49:47.041Z,99851.41
2023-05-08T02:51:28.018Z,99851.72
2023-05-08T02:52:57.427Z,99845.05
2023-05-08T02:54:32.926Z,99851.55
2023-05-08T02:56:01.633Z,99851.13
2023-05-08T02:57:25.897Z,99850.63
2023-05-08T02:58:49.981Z,99851.91
2023-05-08T03:00:23.813Z,99849.95
2023-05-08T03:01:46.115Z,99846.91
2023-05-08T03:03:09.985Z,99846.42
2023-05-08T03:04:39.240Z,99846.55
2023-05-08T03:06:08.288Z,99842.98
2023-05-08T03:07:37.397Z,99842.23
2023-05-08T03:09:06.308Z,99845.14
2023-05-08T03:10:30.698Z,99843.94
2023-05-08T03:12:02.172Z,99847.61
2023-05-08T03:13:24.275Z,99845.84
2023-05-08T03:14:58.299Z,99846.35
2023-05-08T03:16:20.175Z,99851.92
2023-05-08T03:17:52.389Z,99853.20
2023-05-08T03:19:14.244Z,99857.02
2023-05-08T03:20:43.696Z,99856.64
2023-05-08T03:22:07.544Z,99859.63
2023-05-08T03:23:36.600Z,99863.00
2023-05-08T03:24:58.440Z,99864.09
2023-05-08T03:26:40.001Z,99863.55
2023-05-08T03:28:04.650Z,99867.36
2023-05-08T03:29:40.862Z,99862.64
2023-05-08T03:31:09.864Z,99862.10
2023-05-08T03:32:41.094Z,99855.45
2023-05-08T03:34:16.041Z,99861.00
2023-05-08T03:35:40.606Z,99857.25
2023-05-08T03:37:06.026Z,99863.75
2023-05-08T03:38:30.565Z,99863.36
2023-05-08T03:39:59.954Z,99850.47
2023-05-08T03:41:21.744Z,99861.75
2023-05-08T03:42:51.208Z,99865.57
2023-05-08T03:44:17.075Z,99863.88
2023-05-08T03:45:41.279Z,99866.32
2023-05-08T03:47:05.914Z,99865.33
2023-05-08T03:48:29.824Z,99865.75
2023-05-08T03:50:02.942Z,99867.61
2023-05-08T03:51:27.265Z,99865.95
2023-05-08T03:52:49.228Z,99866.79
2023-05-08T03:54:10.901Z,99866.19
2023-05-08T03:55:51.786Z,99868.61
2023-05-08T03:57:13.234Z,99867.59
2023-05-08T03:58:44.713Z,99868.27
2023-05-08T04:00:10.631Z,99868.81
2023-05-08T04:01:46.725Z,99870.88
2023-05-08T04:03:20.889Z,99873.25
2023-05-08T04:04:54.736Z,99875.64
2023-05-08T04:06:42.160Z,99876.27
2023-05-08T04:08:11.831Z,99875.34
2023-05-08T04:09:44.262Z,99873.52
2023-05-08T04:11:17.541Z,99880.23
2023-05-08T04:12:45.224Z,99878.48
2023-05-08T04:14:07.719Z,99881.92
2023-05-08T04:15:30.673Z,99884.77
2023-05-08T04:17:11.051Z,99886.09
2023-05-08T04:18:38.178Z,99888.50
2023-05-08T04:20:08.121Z,99889.80
2023-05-08T04:21:38.270Z,99890.63
2023-05-08T04:23:11.956Z,99893.05
2023-05-08T04:24:45.448Z,99897.62
2023-05-08T04:26:15.893Z,99894.19
2023-05-08T04:27:51.395Z,99899.42
2023-05-08T04:29:15.658Z,99903.12
2023-05-08T04:30:40.247Z,99905.23
2023-05-08T04:32:04.072Z,99904.17
2023-05-08T04:33:28.492Z,99907.48
2023-05-08T04:35:03.389Z,99903.69
2023-05-08T04:36:37.124Z,99905.91
2023-05-08T04:38:10.487Z,99907.71
2023-05-08T04:39:41.373Z,99910.08
2023-05-08T04:41:06.798Z,99911.05
2023-05-08T04:42:36.453Z,99914.44
2023-05-08T04:44:05.261Z,99913.50
2023-05-08T04:45:29.934Z,99914.45
2023-05-08T04:47:03.279Z,99918.07
2023-05-08T04:48:27.597Z,99919.84
2023-05-08T04:49:59.531Z,99918.90
2023-05-08T04:51:26.474Z,99922.36
2023-05-08T04:53:02.458Z,99922.05
2023-05-08T04:54:36.039Z,99926.38
2023-05-08T04:56:09.643Z,99907.88
2023-05-08T04:57:41.660Z,99924.23
2023-05-08T04:59:03.660Z,99924.86
2023-05-08T05:00:35.314Z,99926.11
2023-05-08T05:01:56.868Z,99925.73
2023-05-08T05:03:21.030Z,99919.14
2023-05-08T05:05:06.102Z,99928.27
2023-05-08T05:06:43.142Z,99932.99
2023-05-08T05:08:08.966Z,99935.86
2023-05-08T05:09:38.677Z,99934.79
2023-05-08T05:11:12.149Z,99941.78
2023-05-08T05:12:34.193Z,99945.54
2023-05-08T05:14:07.817Z,99946.20
2023-05-08T05:15:34.115Z,99949.23
2023-05-08T05:17:07.449Z,99953.39
2023-05-08T05:18:31.943Z,99947.96
2023-05-08T05:20:12.123Z,99950.11
2023-05-08T05:21:43.797Z,99944.77
2023-05-08T05:23:28.918Z,99951.35
2023-05-08T05:25:04.683Z,99951.21
2023-05-08T05:26:40.583Z,99951.30
2023-05-08T05:28:13.519Z,99953.55
2023-05-08T05:29:35.786Z,99953.55
2023-05-08T05:31:11.609Z,99950.94
2023-05-08T05:32:33.725Z,99955.33
2023-05-08T05:34:06.797Z,99954.96
2023-05-08T05:35:44.402Z,99954.13
2023-05-08T05:37:06.838Z,99960.15
2023-05-08T05:38:40.775Z,99957.25
2023-05-08T05:40:05.019Z,99955.60
2023-05-08T05:41:34.395Z,99955.79
2023-05-08T05:42:56.396Z,99960.36
2023-05-08T05:44:26.017Z,99961.60
2023-05-08T05:46:01.607Z,99960.79
2023-05-08T05:47:23.551Z,99956.74
2023-05-08T05:48:45.313Z,99960.89
2023-05-08T05:50:09.473Z,99962.10
2023-05-08T05:51:43.143Z,99960.86
2023-05-08T05:53:07.376Z,99960.05
2023-05-08T05:54:49.306Z,99966.77
2023-05-08T05:56:30.027Z,99965.04
2023-05-08T05:57:54.151Z,99967.33
2023-05-08T05:59:23.381Z,99964.70
2023-05-08T06:00:47.510Z,99964.73
2023-05-08T06:02:10.421Z,99966.64
2023-05-08T06:03:34.768Z,99966.98
2023-05-08T06:04:58.351Z,99966.40
2023-05-08T06:06:25.599Z,99959.78
2023-05-08T06:07:48.280Z,99966.70
2023-05-08T06:09:24.495Z,99967.41
2023-05-08T06:11:00.174Z,99968.65
2023-05-08T06:12:35.969Z,99965.98
2023-05-08T06:14:09.595Z,99969.22
2023-05-08T06:15:36.347Z,99966.48
2023-05-08T06:17:09.994Z,99970.32
2023-05-08T06:18:35.014Z,99969.45
2023-05-08T06:20:08.299Z,99969.59
2023-05-08T06:21:32.737Z,99958.63
2023-05-08T06:23:08.168Z,99971.98
2023-05-08T06:24:42.047Z,99973.55
2023-05-08T06:26:06.033Z,99976.31
2023-05-08T06:27:28.539Z,99971.84
2023-05-08T06:28:54.591Z,99976.70
2023-05-08T06:30:28.017Z,99975.25
2023-05-08T06:32:01.463Z,99974.30
2023-05-08T06:33:42.482Z,99976.88
2023-05-08T06:35:06.074Z,99978.66
2023-05-08T06:36:28.421Z,99979.19
2023-05-08T06:38:01.767Z,99975.80
2023-05-08T06:39:26.039Z,99977.66
2023-05-08T06:40:50.062Z,99968.08
2023-05-08T06:42:21.255Z,99973.11
2023-05-08T06:43:54.986Z,99972.91
2023-05-08T06:45:24.243Z,99973.79
2023-05-08T06:46:53.269Z,99974.31
2023-05-08T06:48:22.424Z,99983.89
2023-05-08T06:49:56.093Z,99984.96
2023-05-08T06:51:19.854Z,99986.08
2023-05-08T06:52:53.375Z,99987.53
2023-05-08T06:54:15.184Z,99986.23
2023-05-08T06:55:47.473Z,99984.63
2023-05-08T06:57:20.463Z,99985.91
2023-05-08T06:59:00.878Z,99990.09
2023-05-08T07:00:29.248Z,99991.89
2023-05-08T07:02:00.719Z,99995.60
2023-05-08T07:03:46.240Z,99997.46
2023-05-08T07:05:17.468Z,99996.14
2023-05-08T07:06:39.577Z,100000.29
2023-05-08T07:08:03.447Z,99992.98
2023-05-08T07:09:39.223Z,99999.59
2023-05-08T07:11:05.488Z,100000.86
2023-05-08T07:12:29.576Z,100002.36
2023-05-08T07:13:53.711Z,99999.38
2023-05-08T07:15:25.952Z,100003.58
2023-05-08T07:16:50.530Z,100004.99
2023-05-08T07:18:11.835Z,100005.18
2023-05-08T07:19:33.975Z,100006.39
2023-05-08T07:21:07.184Z,100002.80
2023-05-08T07:22:28.950Z,100002.85
2023-05-08T07:23:53.677Z,100004.04
2023-05-08T07:25:29.410Z,100005.02
2023-05-08T07:26:51.551Z,100009.36
2023-05-08T07:28:13.189Z,100009.93
2023-05-08T07:29:46.870Z,100006.45
2023-05-08T07:31:08.415Z,100011.23
2023-05-08T07:32:32.915Z,100005.98
2023-05-08T07:33:57.011Z,100006.50
2023-05-08T07:35:33.580Z,100005.13
2023-05-08T07:36:57.287Z,100005.39
2023-05-08T07:38:30.732Z,100006.02
2023-05-08T07:39:59.916Z,100005.45
2023-05-08T07:41:23.769Z,100006.65
2023-05-08T07:42:55.308Z,99996.06
2023-05-08T07:44:17.005Z,100004.18
2023-05-08T07:45:58.367Z,100004.45
2023-05-08T07:47:20.122Z,100007.21
2023-05-08T07:48:55.583Z,100008.92
2023-05-08T07:50:24.803Z,100007.83
2023-05-08T07:51:46.929Z,100009.66
2023-05-08T07:53:08.678Z,100005.48
2023-05-08T07:54:40.703Z,100010.08
2023-05-08T07:56:02.096Z,100007.91
2023-05-08T07:57:24.091Z,100010.52
2023-05-08T07:58:47.772Z,100011.13
2023-05-08T08:00:10.034Z,100012.52
2023-05-08T08:01:43.160Z,100010.55
2023-05-08T08:03:07.292Z,100014.23
2023-05-08T08:04:48.533Z,100003.68
2023-05-08T08:06:18.685Z,100010.91
2023-05-08T08:07:40.295Z,100014.62
2023-05-08T08:09:04.510Z,100010.20
2023-05-08T08:10:41.195Z,100003.20
2023-05-08T08:12:03.198Z,100010.86
2023-05-08T08:13:25.344Z,100012.75
2023-05-08T08:14:47.200Z,100015.63
2023-05-08T08:16:11.640Z,100015.08
2023-05-08T08:17:35.701Z,100011.92
2023-05-08T08:19:14.375Z,100009.73
2023-05-08T08:20:36.413Z,100006.28
2023-05-08T08:22:02.297Z,100009.84
2023-05-08T08:23:31.796Z,100009.89
2023-05-08T08:25:03.130Z,100005.42
2023-05-08T08:26:48.601Z,100001.84
2023-05-08T08:28:12.493Z,100005.30
2023-05-08T08:29:34.726Z,100002.69
2023-05-08T08:30:56.770Z,100003.23
2023-05-08T08:32:18.549Z,99999.89
2023-05-08T08:33:43.389Z,100003.34
2023-05-08T08:36:55.120Z,100001.77
2023-05-08T08:38:16.868Z,100000.36
2023-05-08T08:39:38.586Z,99998.35
2023-05-08T08:41:10.313Z,100001.10
2023-05-08T08:42:32.272Z,99998.18
2023-05-08T08:43:54.133Z,100001.63
2023-05-08T08:45:28.262Z,99999.08
2023-05-08T08:46:50.029Z,100003.23
2023-05-08T08:48:12.683Z,99985.63
2023-05-08T08:49:34.317Z,99995.48
2023-05-08T08:50:56.309Z,99998.08
2023-05-08T08:52:17.918Z,100000.71
2023-05-08T08:53:39.975Z,99997.60
2023-05-08T08:55:08.932Z,99995.60
2023-05-08T08:56:31.047Z,99996.38
2023-05-08T08:57:54.979Z,100000.63
2023-05-08T08:59:19.326Z,99997.35
2023-05-08T09:00:41.750Z,99993.88
2023-05-08T09:02:04.048Z,99998.68
2023-05-08T09:03:26.155Z,99999.37
2023-05-08T09:04:48.076Z,99999.10
2023-05-08T09:06:17.204Z,100001.52
2023-05-08T09:07:41.231Z,99994.43
2023-05-08T09:09:02.566Z,100000.86
2023-05-08T09:10:24.374Z,99995.55
2023-05-08T09:11:57.609Z,99990.38
2023-05-08T09:13:19.796Z,99996.36
2023-05-08T09:14:41.992Z,99993.52
2023-05-08T09:16:03.633Z,99993.58
2023-05-08T09:17:33.127Z,99989.60
2023-05-08T09:18:54.853Z,99998.73
2023-05-08T09:20:16.436Z,99996.66
2023-05-08T09:21:38.460Z,99994.22
2023-05-08T09:23:00.857Z,99994.42
2023-05-08T09:24:23.570Z,99999.06
2023-05-08T09:25:45.406Z,99995.81
2023-05-08T09:27:06.621Z,99993.61
2023-05-08T09:28:39.982Z,99993.48
2023-05-08T09:30:04.825Z,99996.55
2023-05-08T09:31:26.875Z,99995.15
2023-05-08T09:32:50.042Z,99990.80
2023-05-08T09:34:12.007Z,99991.45
2023-05-08T09:35:43.749Z,99991.51
2023-05-08T09:37:07.129Z,99992.50
2023-05-08T09:38:29.307Z,99992.33
2023-05-08T09:39:53.262Z,99989.33
2023-05-08T09:41:15.570Z,99986.20
2023-05-08T09:42:37.786Z,99988.38
2023-05-08T09:44:11.050Z,99982.14
2023-05-08T09:45:33.319Z,99980.11
2023-05-08T09:46:57.506Z,99982.77
2023-05-08T09:48:19.134Z,99979.84
2023-05-08T09:49:41.267Z,99976.40
2023-05-08T09:51:05.513Z,99976.65
2023-05-08T09:52:30.013Z,99974.98
2023-05-08T09:53:57.101Z,99969.42
2023-05-08T09:55:19.215Z,99972.77
2023-05-08T09:56:43.161Z,99974.92
2023-05-08T09:58:06.892Z,99974.98
2023-05-08T09:59:34.374Z,99972.33
2023-05-08T10:00:56.667Z,99971.32
2023-05-08T10:02:20.448Z,99968.26
2023-05-08T10:03:42.508Z,99967.15
2023-05-08T10:05:04.479Z,99966.87
2023-05-08T10:06:28.416Z,99965.05
2023-05-08T10:07:50.454Z,99959.89
2023-05-08T10:09:12.287Z,99963.95
2023-05-08T10:10:41.957Z,99967.21
2023-05-08T10:12:03.620Z,99969.01
2023-05-08T10:13:26.212Z,99970.55
2023-05-08T10:14:48.259Z,99972.71
2023-05-08T10:16:09.595Z,99968.36
2023-05-08T10:17:31.524Z,99961.77
2023-05-08T10:19:00.713Z,99963.29
2023-05-08T10:20:27.085Z,99963.00
2023-05-08T10:21:55.944Z,99962.64
2023-05-08T10:23:37.012Z,99952.99
2023-05-08T10:24:58.978Z,99964.90
2023-05-08T10:26:21.689Z,99967.55
2023-05-08T10:27:43.446Z,99965.14
2023-05-08T10:29:16.606Z,99964.36
2023-05-08T10:30:38.736Z,99961.30
2023-05-08T10:32:03.252Z,99964.02
2023-05-08T10:33:25.065Z,99963.34
2023-05-08T10:34:49.429Z,99964.56
2023-05-08T10:36:11.054Z,99963.06
2023-05-08T10:37:45.073Z,99960.88
2023-05-08T10:39:17.040Z,99963.78
2023-05-08T10:40:38.879Z,99961.58
2023-05-08T10:42:07.841Z,99966.05
2023-05-08T10:43:41.656Z,99966.59
2023-05-08T10:45:05.836Z,99963.72
2023-05-08T10:46:27.609Z,99960.81
2023-05-08T10:47:52.734Z,99963.94
2023-05-08T10:49:16.550Z,99967.39
2023-05-08T10:50:52.525Z,99966.41
2023-05-08T10:52:16.218Z,99963.14
2023-05-08T10:53:41.113Z,99960.59
2023-05-08T10:55:06.555Z,99955.36
2023-05-08T10:56:40.968Z,99959.34
2023-05-08T10:58:16.909Z,99956.00
2023-05-08T10:59:39.055Z,99957.59
2023-05-08T11:01:03.037Z,99955.88
2023-05-08T11:02:38.337Z,99950.54
2023-05-08T11:04:02.271Z,99956.48
2023-05-08T11:05:26.395Z,99956.02
2023-05-08T11:06:55.293Z,99956.29
2023-05-08T11:08:24.716Z,99956.35
2023-05-08T11:09:46.704Z,99955.36
2023-05-08T11:11:15.360Z,99956.27
2023-05-08T11:12:37.935Z,99954.64
2023-05-08T11:14:00.313Z,99950.55
2023-05-08T11:15:26.680Z,99952.77
2023-05-08T11:16:48.629Z,99950.03
2023-05-08T11:18:17.463Z,99943.89
2023-05-08T11:19:46.565Z,99938.14
2023-05-08T11:21:08.303Z,99945.37
2023-05-08T11:22:38.185Z,99942.80
2023-05-08T11:24:07.479Z,99936.06
2023-05-08T11:25:41.384Z,99941.31
2023-05-08T11:27:03.124Z,99936.86
2023-05-08T11:28:24.682Z,99940.88
2023-05-08T11:29:46.433Z,99937.47
2023-05-08T11:31:08.190Z,99936.80
2023-05-08T11:32:30.412Z,99938.41
2023-05-08T11:33:52.437Z,99939.79
2023-05-08T11:35:16.606Z,99940.95
2023-05-08T11:36:38.833Z,99940.60
2023-05-08T11:38:00.505Z,99939.12
2023-05-08T11:39:27.112Z,99935.21
2023-05-08T11:40:49.218Z,99935.56
2023-05-08T11:42:13.346Z,99932.71
2023-05-08T11:43:38.582Z,99931.29
2023-05-08T11:45:03.097Z,99929.14
2023-05-08T11:46:26.991Z,99930.60
2023-05-08T11:47:51.983Z,99928.64
2023-05-08T11:49:24.698Z,99932.05
2023-05-08T11:50:49.753Z,99929.89
2023-05-08T11:52:19.058Z,99924.69
2023-05-08T11:53:44.065Z,99927.45
2023-05-08T11:55:05.703Z,99927.34
2023-05-08T11:56:27.388Z,99927.33
2023-05-08T11:57:49.106Z,99927.73
2023-05-08T11:59:10.914Z,99926.13
2023-05-08T12:00:35.137Z,99923.13
2023-05-08T12:02:07.583Z,99923.05
2023-05-08T12:03:31.130Z,99923.38
2023-05-08T12:04:53.548Z,99926.33
2023-05-08T12:06:17.225Z,99921.31
2023-05-08T12:07:41.701Z,99925.23
2023-05-08T12:09:05.254Z,99921.40
2023-05-08T12:10:27.196Z,99924.06
2023-05-08T12:11:56.557Z,99917.41
2023-05-08T12:13:21.410Z,99922.30
2023-05-08T12:14:51.397Z,99920.48
2023-05-08T12:16:12.971Z,99916.69
2023-05-08T12:17:35.693Z,99919.27
2023-05-08T12:18:57.412Z,99913.23
2023-05-08T12:20:43.247Z,99914.95
2023-05-08T12:22:04.708Z,99918.05
2023-05-08T12:23:33.852Z,99914.31
2023-05-08T12:24:57.992Z,99913.52
2023-05-08T12:26:19.733Z,99910.27
2023-05-08T12:27:46.380Z,99916.14
2023-05-08T12:29:10.082Z,99912.95
2023-05-08T12:30:43.829Z,99899.59
2023-05-08T12:32:05.407Z,99913.13
2023-05-08T12:33:29.449Z,99911.74
2023-05-08T12:34:52.467Z,99911.73
2023-05-08T12:36:13.826Z,99907.17
2023-05-08T12:37:37.996Z,99902.83
2023-05-08T12:39:07.161Z,99903.40
2023-05-08T12:40:28.945Z,99903.05
2023-05-08T12:41:51.159Z,99905.82
2023-05-08T12:43:12.768Z,99903.46
2023-05-08T12:44:34.609Z,99903.30
2023-05-08T12:45:58.661Z,99902.51
2023-05-08T12:47:20.806Z,99902.53
2023-05-08T12:48:42.805Z,99908.30
2023-05-08T12:50:04.717Z,99906.54
2023-05-08T12:51:34.274Z,99914.77
2023-05-08T12:53:00.918Z,99913.94
2023-05-08T12:54:22.770Z,99912.67
2023-05-08T12:55:49.577Z,99912.48
2023-05-08T12:57:11.582Z,99913.55
2023-05-08T12:58:33.759Z,99907.56
2023-05-08T13:00:07.270Z,99903.16
2023-05-08T13:01:33.443Z,99899.83
2023-05-08T13:02:55.324Z,99901.08
2023-05-08T13:04:17.374Z,99899.83
2023-05-08T13:05:39.355Z,99899.42
2023-05-08T13:07:01.101Z,99900.83
2023-05-08T13:08:22.635Z,99896.00
2023-05-08T13:09:44.544Z,99889.16
2023-05-08T13:11:08.579Z,99887.30
2023-05-08T13:12:30.557Z,99894.23
2023-05-08T13:13:56.637Z,99888.62
2023-05-08T13:15:18.224Z,99887.76
2023-05-08T13:16:40.274Z,99888.01
2023-05-08T13:18:02.091Z,99880.59
2023-05-08T13:19:31.205Z,99883.50
2023-05-08T13:20:52.872Z,99884.58
2023-05-08T13:22:26.300Z,99892.67
2023-05-08T13:23:48.462Z,99885.01
2023-05-08T13:25:10.447Z,99887.73
2023-05-08T13:26:47.876Z,99885.89
2023-05-08T13:28:12.119Z,99886.66
2023-05-08T13:29:34.257Z,99891.45
2023-05-08T13:30:55.890Z,99891.86
2023-05-08T13:32:17.445Z,99887.88
2023-05-08T13:33:39.362Z,99885.08
2023-05-08T13:35:01.411Z,99881.73
2023-05-08T13:36:26.410Z,99879.23
2023-05-08T13:37:50.770Z,99877.34
2023-05-08T13:39:15.123Z,99873.59
2023-05-08T13:40:37.213Z,99877.53
2023-05-08T13:41:59.099Z,99874.94
2023-05-08T13:43:28.579Z,99875.16
2023-05-08T13:45:05.329Z,99874.39
2023-05-08T13:46:34.597Z,99875.29
2023-05-08T13:47:58.576Z,99874.45
2023-05-08T13:49:32.098Z,99874.01
2023-05-08T13:51:01.602Z,99879.95
2023-05-08T13:52:23.597Z,99870.79
2023-05-08T13:53:47.809Z,99868.03
2023-05-08T13:55:09.632Z,99861.16
2023-05-08T13:56:32.067Z,99863.25
2023-05-08T13:57:53.595Z,99865.92
2023-05-08T13:59:14.993Z,99860.21
2023-05-08T14:00:37.043Z,99864.29
2023-05-08T14:01:58.813Z,99860.60
2023-05-08T14:03:25.244Z,99864.30
2023-05-08T14:04:47.602Z,99863.46
2023-05-08T14:06:09.250Z,99857.23
2023-05-08T14:07:33.515Z,99861.77
2023-05-08T14:09:18.129Z,99860.56
2023-05-08T14:10:40.732Z,99856.34
2023-05-08T14:12:02.727Z,99861.75
2023-05-08T14:13:24.377Z,99855.66
2023-05-08T14:14:45.951Z,99858.52
2023-05-08T14:16:10.436Z,99858.96
2023-05-08T14:17:34.492Z,99855.77
2023-05-08T14:19:00.676Z,99854.14
2023-05-08T14:20:22.445Z,99852.18
2023-05-08T14:21:59.945Z,99849.02
2023-05-08T14:23:23.973Z,99840.73
2023-05-08T14:24:48.375Z,99853.85
2023-05-08T14:26:09.926Z,99846.15
2023-05-08T14:27:36.605Z,99848.96
2023-05-08T14:28:58.273Z,99850.14
2023-05-08T14:30:22.243Z,99847.16
2023-05-08T14:31:44.264Z,99854.41
2023-05-08T14:33:05.953Z,99857.07
2023-05-08T14:34:27.924Z,99859.50
2023-05-08T14:35:49.486Z,99852.92
2023-05-08T14:37:23.311Z,99859.86
2023-05-08T14:38:52.996Z,99857.60
2023-05-08T14:40:14.794Z,99851.83
2023-05-08T14:41:38.273Z,99866.54
2023-05-08T14:43:00.048Z,99863.65
2023-05-08T14:44:33.659Z,99857.04
2023-05-08T14:45:55.674Z,99858.57
2023-05-08T14:47:17.443Z,99862.17
2023-05-08T14:48:39.293Z,99860.31
2023-05-08T14:50:01.159Z,99859.70
2023-05-08T14:51:25.376Z,99858.74
2023-05-08T14:52:47.355Z,99852.50
2023-05-08T14:54:09.165Z,99848.06
2023-05-08T14:55:33.330Z,99851.04
2023-05-08T14:57:05.089Z,99856.08
2023-05-08T14:58:26.966Z,99854.13
2023-05-08T14:59:55.393Z,99851.42
2023-05-08T15:01:16.752Z,99855.60
2023-05-08T15:02:39.821Z,99852.04
2023-05-08T15:04:03.963Z,99854.73
2023-05-08T15:05:25.690Z,99857.81
2023-05-08T15:06:47.945Z,99857.05
2023-05-08T15:08:09.820Z,99856.23
2023-05-08T15:10:00.167Z,99855.81
2023-05-08T15:12:53.070Z,99851.84
2023-05-08T15:14:17.264Z,99844.93
2023-05-08T15:15:41.969Z,99856.06
2023-05-08T15:17:06.344Z,99849.63
2023-05-08T15:18:35.587Z,99850.27
2023-05-08T15:19:57.374Z,99853.75
2023-05-08T15:21:20.990Z,99848.77
2023-05-08T15:22:54.524Z,99843.88
2023-05-08T15:24:19.435Z,99851.65
2023-05-08T15:25:41.560Z,99849.73
2023-05-08T15:27:03.743Z,99845.65
2023-05-08T15:28:25.325Z,99843.67
2023-05-08T15:29:49.833Z,99845.23
2023-05-08T15:31:14.087Z,99847.81
2023-05-08T15:32:48.246Z,99846.79
2023-05-08T15:34:14.310Z,99847.26
2023-05-08T15:35:38.427Z,99844.82
2023-05-08T15:37:02.241Z,99848.37
2023-05-08T15:38:23.630Z,99841.39
2023-05-08T15:39:45.412Z,99844.98
2023-05-08T15:41:07.418Z,99842.58
2023-05-08T15:42:31.254Z,99838.52
2023-05-08T15:43:52.872Z,99838.12
2023-05-08T15:45:16.882Z,99836.84
2023-05-08T15:46:52.858Z,99835.19
2023-05-08T15:48:16.253Z,99834.64
2023-05-08T15:49:40.904Z,99838.73
2023-05-08T15:51:02.498Z,99840.09
2023-05-08T15:52:24.223Z,99837.61
2023-05-08T15:53:46.027Z,99836.53
2023-05-08T15:55:07.868Z,99830.04
2023-05-08T15:56:37.246Z,99827.55
2023-05-08T15:57:59.366Z,99839.39
2023-05-08T15:59:28.088Z,99837.94
2023-05-08T16:00:52.375Z,99837.61
2023-05-08T16:02:21.454Z,99831.90
2023-05-08T16:03:43.298Z,99836.20
2023-05-08T16:05:04.727Z,99832.27
2023-05-08T16:06:26.718Z,99827.36
2023-05-08T16:07:51.569Z,99832.17
2023-05-08T16:09:25.065Z,99828.81
2023-05-08T16:10:47.260Z,99824.58
2023-05-08T16:12:08.873Z,99821.66
2023-05-08T16:13:32.781Z,99829.66
2023-05-08T16:14:54.719Z,99828.07
2023-05-08T16:16:23.638Z,99825.51
2023-05-08T16:17:45.460Z,99823.77
2023-05-08T16:19:09.300Z,99823.69
2023-05-08T16:20:32.102Z,99826.42
2023-05-08T16:21:55.469Z,99825.28
2023-05-08T16:23:17.332Z,99821.00
2023-05-08T16:24:39.325Z,99821.31
2023-05-08T16:26:05.468Z,99820.74
2023-05-08T16:27:29.288Z,99815.30
2023-05-08T16:28:53.329Z,99816.86
2023-05-08T16:30:14.889Z,99818.17
2023-05-08T16:31:36.741Z,99814.77
2023-05-08T16:32:58.446Z,99815.81
2023-05-08T16:34:19.802Z,99813.67
2023-05-08T16:35:44.496Z,99816.79
2023-05-08T16:37:06.415Z,99814.55
2023-05-08T16:38:28.025Z,99818.86
2023-05-08T16:39:49.879Z,99810.92
2023-05-08T16:41:12.708Z,99815.70
2023-05-08T16:42:34.312Z,99820.52
2023-05-08T16:43:56.031Z,99816.63
2023-05-08T16:45:17.576Z,99818.64
2023-05-08T16:46:39.234Z,99820.13
2023-05-08T16:48:01.044Z,99821.66
2023-05-08T16:49:22.932Z,99819.58
2023-05-08T16:50:45.045Z,99820.95
2023-05-08T16:52:08.650Z,99825.15
2023-05-08T16:53:32.409Z,99823.69
2023-05-08T16:54:56.765Z,99820.30